sensor_id;sensor_type;location;lat;lon;timestamp;P1;P2;P0
72793;PMS5003;63436;26.334;50.194;2023-02-15T00:01:39;108;97;
72793;PMS5003;63436;26.334;50.194;2023-02-15T00:04:05;96;88;
72793;PMS5003;63436;26.334;50.194;2023-02-15T00:06:30;95;83;
72793;PMS5003;63436;26.334;50.194;2023-02-15T00:08:55;98;88;
72793;PMS5003;63436;26.334;50.194;2023-02-15T00:11:21;110;98;
72793;PMS5003;63436;26.334;50.194;2023-02-15T00:13:45;96;90;
72793;PMS5003;63436;26.334;50.194;2023-02-15T00:16:11;97;85;
72793;PMS5003;63436;26.334;50.194;2023-02-15T00:18:36;97;88;
72793;PMS5003;63436;26.334;50.194;2023-02-15T00:21:03;105;90;
72793;PMS5003;63436;26.334;50.194;2023-02-15T00:23:27;101;94;
72793;PMS5003;63436;26.334;50.194;2023-02-15T00:25:52;108;100;
72793;PMS5003;63436;26.334;50.194;2023-02-15T00:28:17;103;99;
72793;PMS5003;63436;26.334;50.194;2023-02-15T00:30:43;101;96;
72793;PMS5003;63436;26.334;50.194;2023-02-15T00:33:11;102;97;
72793;PMS5003;63436;26.334;50.194;2023-02-15T00:35:34;112;103;
72793;PMS5003;63436;26.334;50.194;2023-02-15T00:38:00;105;99;
72793;PMS5003;63436;26.334;50.194;2023-02-15T00:40:26;111;99;
72793;PMS5003;63436;26.334;50.194;2023-02-15T00:42:51;101;96;
72793;PMS5003;63436;26.334;50.194;2023-02-15T00:45:17;102;99;
72793;PMS5003;63436;26.334;50.194;2023-02-15T00:47:44;115;102;
72793;PMS5003;63436;26.334;50.194;2023-02-15T00:50:08;111;103;
72793;PMS5003;63436;26.334;50.194;2023-02-15T00:52:33;105;99;
72793;PMS5003;63436;26.334;50.194;2023-02-15T00:54:59;118;104;
72793;PMS5003;63436;26.334;50.194;2023-02-15T00:57:24;104;97;
72793;PMS5003;63436;26.334;50.194;2023-02-15T00:59:50;107;101;
72793;PMS5003;63436;26.334;50.194;2023-02-15T01:02:15;100;96;
72793;PMS5003;63436;26.334;50.194;2023-02-15T01:04:41;109;106;
72793;PMS5003;63436;26.334;50.194;2023-02-15T01:07:07;113;101;
72793;PMS5003;63436;26.334;50.194;2023-02-15T01:09:32;114;100;
72793;PMS5003;63436;26.334;50.194;2023-02-15T01:11:58;98;94;
72793;PMS5003;63436;26.334;50.194;2023-02-15T01:14:24;112;104;
72793;PMS5003;63436;26.334;50.194;2023-02-15T01:16:49;103;93;
72793;PMS5003;63436;26.334;50.194;2023-02-15T01:19:16;100;90;
72793;PMS5003;63436;26.334;50.194;2023-02-15T01:21:40;100;93;
72793;PMS5003;63436;26.334;50.194;2023-02-15T01:24:10;103;89;
72793;PMS5003;63436;26.334;50.194;2023-02-15T01:26:31;109;95;
72793;PMS5003;63436;26.334;50.194;2023-02-15T01:28:57;93;88;
72793;PMS5003;63436;26.334;50.194;2023-02-15T01:31:22;102;97;
72793;PMS5003;63436;26.334;50.194;2023-02-15T01:33:49;91;88;
72793;PMS5003;63436;26.334;50.194;2023-02-15T01:36:14;100;93;
72793;PMS5003;63436;26.334;50.194;2023-02-15T01:38:40;92;89;
72793;PMS5003;63436;26.334;50.194;2023-02-15T01:41:06;91;85;
72793;PMS5003;63436;26.334;50.194;2023-02-15T01:45:56;96;88;
72793;PMS5003;63436;26.334;50.194;2023-02-15T01:48:22;81;77;
72793;PMS5003;63436;26.334;50.194;2023-02-15T01:50:47;93;84;
72793;PMS5003;63436;26.334;50.194;2023-02-15T01:53:13;83;77;
72793;PMS5003;63436;26.334;50.194;2023-02-15T01:55:38;95;89;
72793;PMS5003;63436;26.334;50.194;2023-02-15T01:58:01;91;83;
72793;PMS5003;63436;26.334;50.194;2023-02-15T02:00:27;88;76;
72793;PMS5003;63436;26.334;50.194;2023-02-15T02:02:53;92;84;
72793;PMS5003;63436;26.334;50.194;2023-02-15T02:05:18;85;79;
72793;PMS5003;63436;26.334;50.194;2023-02-15T02:07:44;80;77;
72793;PMS5003;63436;26.334;50.194;2023-02-15T02:10:09;80;76;
72793;PMS5003;63436;26.334;50.194;2023-02-15T02:12:34;90;79;
72793;PMS5003;63436;26.334;50.194;2023-02-15T02:15:02;86;74;
72793;PMS5003;63436;26.334;50.194;2023-02-15T02:17:26;80;75;
72793;PMS5003;63436;26.334;50.194;2023-02-15T02:19:57;74;70;
72793;PMS5003;63436;26.334;50.194;2023-02-15T02:24:46;76;75;
72793;PMS5003;63436;26.334;50.194;2023-02-15T02:29:41;83;77;
72793;PMS5003;63436;26.334;50.194;2023-02-15T02:34:24;70;68;
72793;PMS5003;63436;26.334;50.194;2023-02-15T02:36:49;77;70;
72793;PMS5003;63436;26.334;50.194;2023-02-15T02:39:19;73;72;
72793;PMS5003;63436;26.334;50.194;2023-02-15T02:41:44;76;69;
72793;PMS5003;63436;26.334;50.194;2023-02-15T02:44:07;72;65;
72793;PMS5003;63436;26.334;50.194;2023-02-15T02:46:31;72;64;
72793;PMS5003;63436;26.334;50.194;2023-02-15T02:48:56;71;64;
72793;PMS5003;63436;26.334;50.194;2023-02-15T02:51:21;72;64;
72793;PMS5003;63436;26.334;50.194;2023-02-15T02:53:47;67;62;
72793;PMS5003;63436;26.334;50.194;2023-02-15T02:56:14;80;67;
72793;PMS5003;63436;26.334;50.194;2023-02-15T02:58:38;62;56;
72793;PMS5003;63436;26.334;50.194;2023-02-15T03:01:03;65;59;
72793;PMS5003;63436;26.334;50.194;2023-02-15T03:03:31;77;67;
72793;PMS5003;63436;26.334;50.194;2023-02-15T03:05:54;78;68;
72793;PMS5003;63436;26.334;50.194;2023-02-15T03:08:19;65;60;
72793;PMS5003;63436;26.334;50.194;2023-02-15T03:10:46;67;64;
72793;PMS5003;63436;26.334;50.194;2023-02-15T03:13:11;58;58;
72793;PMS5003;63436;26.334;50.194;2023-02-15T03:15:36;68;62;
72793;PMS5003;63436;26.334;50.194;2023-02-15T03:18:02;66;57;
72793;PMS5003;63436;26.334;50.194;2023-02-15T03:20:28;68;64;
72793;PMS5003;63436;26.334;50.194;2023-02-15T03:22:53;68;63;
72793;PMS5003;63436;26.334;50.194;2023-02-15T03:25:18;66;63;
72793;PMS5003;63436;26.334;50.194;2023-02-15T03:27:43;74;63;
72793;PMS5003;63436;26.334;50.194;2023-02-15T03:30:07;70;59;
72793;PMS5003;63436;26.334;50.194;2023-02-15T03:32:33;71;63;
72793;PMS5003;63436;26.334;50.194;2023-02-15T03:34:57;74;60;
72793;PMS5003;63436;26.334;50.194;2023-02-15T03:37:25;64;59;
72793;PMS5003;63436;26.334;50.194;2023-02-15T03:39:49;67;66;
72793;PMS5003;63436;26.334;50.194;2023-02-15T03:42:15;69;65;
72793;PMS5003;63436;26.334;50.194;2023-02-15T03:44:41;61;58;
72793;PMS5003;63436;26.334;50.194;2023-02-15T03:47:05;59;56;
72793;PMS5003;63436;26.334;50.194;2023-02-15T03:49:30;62;60;
72793;PMS5003;63436;26.334;50.194;2023-02-15T03:51:55;62;55;
72793;PMS5003;63436;26.334;50.194;2023-02-15T03:54:21;65;57;
72793;PMS5003;63436;26.334;50.194;2023-02-15T03:56:45;72;68;
72793;PMS5003;63436;26.334;50.194;2023-02-15T03:59:10;70;57;
72793;PMS5003;63436;26.334;50.194;2023-02-15T04:01:37;72;66;
72793;PMS5003;63436;26.334;50.194;2023-02-15T04:04:03;68;61;
72793;PMS5003;63436;26.334;50.194;2023-02-15T04:06:26;71;65;
72793;PMS5003;63436;26.334;50.194;2023-02-15T04:08:53;76;65;
72793;PMS5003;63436;26.334;50.194;2023-02-15T04:11:17;76;70;
72793;PMS5003;63436;26.334;50.194;2023-02-15T04:13:42;72;66;
72793;PMS5003;63436;26.334;50.194;2023-02-15T04:16:09;74;64;
72793;PMS5003;63436;26.334;50.194;2023-02-15T04:18:33;72;67;
72793;PMS5003;63436;26.334;50.194;2023-02-15T04:20:58;69;60;
72793;PMS5003;63436;26.334;50.194;2023-02-15T04:23:25;71;63;
72793;PMS5003;63436;26.334;50.194;2023-02-15T04:25:49;67;58;
72793;PMS5003;63436;26.334;50.194;2023-02-15T04:28:15;71;60;
72793;PMS5003;63436;26.334;50.194;2023-02-15T04:30:41;71;59;
72793;PMS5003;63436;26.334;50.194;2023-02-15T04:33:05;66;58;
72793;PMS5003;63436;26.334;50.194;2023-02-15T04:35:30;70;61;
72793;PMS5003;63436;26.334;50.194;2023-02-15T04:37:57;61;55;
72793;PMS5003;63436;26.334;50.194;2023-02-15T04:40:21;63;57;
72793;PMS5003;63436;26.334;50.194;2023-02-15T04:42:47;66;58;
72793;PMS5003;63436;26.334;50.194;2023-02-15T04:45:13;73;60;
72793;PMS5003;63436;26.334;50.194;2023-02-15T04:47:38;51;51;
72793;PMS5003;63436;26.334;50.194;2023-02-15T04:50:04;67;56;
72793;PMS5003;63436;26.334;50.194;2023-02-15T04:52:30;60;55;
72793;PMS5003;63436;26.334;50.194;2023-02-15T04:54:55;69;62;
72793;PMS5003;63436;26.334;50.194;2023-02-15T04:57:20;60;55;
72793;PMS5003;63436;26.334;50.194;2023-02-15T04:59:46;69;59;
72793;PMS5003;63436;26.334;50.194;2023-02-15T05:02:11;64;59;
72793;PMS5003;63436;26.334;50.194;2023-02-15T05:04:36;63;56;
72793;PMS5003;63436;26.334;50.194;2023-02-15T05:07:03;54;51;
72793;PMS5003;63436;26.334;50.194;2023-02-15T05:09:27;62;58;
72793;PMS5003;63436;26.334;50.194;2023-02-15T05:11:52;68;55;
72793;PMS5003;63436;26.334;50.194;2023-02-15T05:14:19;67;55;
72793;PMS5003;63436;26.334;50.194;2023-02-15T05:16:43;67;56;
72793;PMS5003;63436;26.334;50.194;2023-02-15T05:19:08;64;57;
72793;PMS5003;63436;26.334;50.194;2023-02-15T05:21:34;73;62;
72793;PMS5003;63436;26.334;50.194;2023-02-15T05:23:58;74;68;
72793;PMS5003;63436;26.334;50.194;2023-02-15T05:26:24;81;64;
72793;PMS5003;63436;26.334;50.194;2023-02-15T05:28:50;66;59;
72793;PMS5003;63436;26.334;50.194;2023-02-15T05:31:16;65;58;
72793;PMS5003;63436;26.334;50.194;2023-02-15T05:33:40;75;68;
72793;PMS5003;63436;26.334;50.194;2023-02-15T05:36:06;70;60;
72793;PMS5003;63436;26.334;50.194;2023-02-15T05:38:31;68;61;
72793;PMS5003;63436;26.334;50.194;2023-02-15T05:40:56;69;58;
72793;PMS5003;63436;26.334;50.194;2023-02-15T05:43:23;62;61;
72793;PMS5003;63436;26.334;50.194;2023-02-15T05:45:48;67;60;
72793;PMS5003;63436;26.334;50.194;2023-02-15T05:48:13;67;62;
72793;PMS5003;63436;26.334;50.194;2023-02-15T05:50:39;73;59;
72793;PMS5003;63436;26.334;50.194;2023-02-15T05:53:04;76;68;
72793;PMS5003;63436;26.334;50.194;2023-02-15T05:55:29;91;78;
72793;PMS5003;63436;26.334;50.194;2023-02-15T05:57:56;88;75;
72793;PMS5003;63436;26.334;50.194;2023-02-15T06:00:21;86;77;
72793;PMS5003;63436;26.334;50.194;2023-02-15T06:02:47;83;76;
72793;PMS5003;63436;26.334;50.194;2023-02-15T06:05:13;93;79;
72793;PMS5003;63436;26.334;50.194;2023-02-15T06:07:38;91;82;
72793;PMS5003;63436;26.334;50.194;2023-02-15T06:10:03;87;82;
72793;PMS5003;63436;26.334;50.194;2023-02-15T06:12:29;83;78;
72793;PMS5003;63436;26.334;50.194;2023-02-15T06:14:55;82;77;
72793;PMS5003;63436;26.334;50.194;2023-02-15T06:17:20;89;82;
72793;PMS5003;63436;26.334;50.194;2023-02-15T06:19:47;76;74;
72793;PMS5003;63436;26.334;50.194;2023-02-15T06:22:11;79;75;
72793;PMS5003;63436;26.334;50.194;2023-02-15T06:24:37;80;72;
72793;PMS5003;63436;26.334;50.194;2023-02-15T06:27:04;83;74;
72793;PMS5003;63436;26.334;50.194;2023-02-15T06:29:28;81;72;
72793;PMS5003;63436;26.334;50.194;2023-02-15T06:31:53;70;65;
72793;PMS5003;63436;26.334;50.194;2023-02-15T06:34:19;83;72;
72793;PMS5003;63436;26.334;50.194;2023-02-15T06:36:43;76;65;
72793;PMS5003;63436;26.334;50.194;2023-02-15T06:39:09;70;68;
72793;PMS5003;63436;26.334;50.194;2023-02-15T06:41:36;83;73;
72793;PMS5003;63436;26.334;50.194;2023-02-15T06:44:00;85;74;
72793;PMS5003;63436;26.334;50.194;2023-02-15T06:46:25;86;75;
72793;PMS5003;63436;26.334;50.194;2023-02-15T06:48:51;78;70;
72793;PMS5003;63436;26.334;50.194;2023-02-15T06:51:15;88;79;
72793;PMS5003;63436;26.334;50.194;2023-02-15T06:53:41;84;73;
72793;PMS5003;63436;26.334;50.194;2023-02-15T06:56:08;76;69;
72793;PMS5003;63436;26.334;50.194;2023-02-15T06:58:32;78;70;
72793;PMS5003;63436;26.334;50.194;2023-02-15T07:00:58;70;62;
72793;PMS5003;63436;26.334;50.194;2023-02-15T07:03:23;59;55;
72793;PMS5003;63436;26.334;50.194;2023-02-15T07:05:48;56;50;
72793;PMS5003;63436;26.334;50.194;2023-02-15T07:08:13;55;52;
72793;PMS5003;63436;26.334;50.194;2023-02-15T07:10:39;52;44;
72793;PMS5003;63436;26.334;50.194;2023-02-15T07:13:04;56;50;
72793;PMS5003;63436;26.334;50.194;2023-02-15T07:15:29;54;45;
72793;PMS5003;63436;26.334;50.194;2023-02-15T07:17:56;60;55;
72793;PMS5003;63436;26.334;50.194;2023-02-15T07:20:20;59;49;
72793;PMS5003;63436;26.334;50.194;2023-02-15T07:22:45;54;46;
72793;PMS5003;63436;26.334;50.194;2023-02-15T07:25:11;58;50;
72793;PMS5003;63436;26.334;50.194;2023-02-15T07:27:36;60;50;
72793;PMS5003;63436;26.334;50.194;2023-02-15T07:30:02;67;56;
72793;PMS5003;63436;26.334;50.194;2023-02-15T07:32:28;54;48;
72793;PMS5003;63436;26.334;50.194;2023-02-15T07:34:53;50;43;
72793;PMS5003;63436;26.334;50.194;2023-02-15T07:37:18;63;54;
72793;PMS5003;63436;26.334;50.194;2023-02-15T07:39:45;57;52;
72793;PMS5003;63436;26.334;50.194;2023-02-15T07:42:09;54;52;
72793;PMS5003;63436;26.334;50.194;2023-02-15T07:44:34;57;53;
72793;PMS5003;63436;26.334;50.194;2023-02-15T07:47:00;59;54;
72793;PMS5003;63436;26.334;50.194;2023-02-15T07:49:25;61;55;
72793;PMS5003;63436;26.334;50.194;2023-02-15T07:51:50;50;48;
72793;PMS5003;63436;26.334;50.194;2023-02-15T07:54:16;51;45;
72793;PMS5003;63436;26.334;50.194;2023-02-15T07:56:41;54;49;
72793;PMS5003;63436;26.334;50.194;2023-02-15T07:59:07;48;44;
72793;PMS5003;63436;26.334;50.194;2023-02-15T08:01:33;58;48;
72793;PMS5003;63436;26.334;50.194;2023-02-15T08:03:58;50;46;
72793;PMS5003;63436;26.334;50.194;2023-02-15T08:06:24;50;44;
72793;PMS5003;63436;26.334;50.194;2023-02-15T08:08:49;54;49;
72793;PMS5003;63436;26.334;50.194;2023-02-15T08:11:15;60;53;
72793;PMS5003;63436;26.334;50.194;2023-02-15T08:13:42;51;47;
72793;PMS5003;63436;26.334;50.194;2023-02-15T08:16:06;61;51;
72793;PMS5003;63436;26.334;50.194;2023-02-15T08:18:31;59;51;
72793;PMS5003;63436;26.334;50.194;2023-02-15T08:20:56;43;39;
72793;PMS5003;63436;26.334;50.194;2023-02-15T08:23:22;47;42;
72793;PMS5003;63436;26.334;50.194;2023-02-15T08:25:48;48;39;
72793;PMS5003;63436;26.334;50.194;2023-02-15T08:28:13;47;43;
72793;PMS5003;63436;26.334;50.194;2023-02-15T08:30:39;58;52;
72793;PMS5003;63436;26.334;50.194;2023-02-15T08:33:04;56;44;
72793;PMS5003;63436;26.334;50.194;2023-02-15T08:35:29;47;40;
72793;PMS5003;63436;26.334;50.194;2023-02-15T08:37:55;48;42;
72793;PMS5003;63436;26.334;50.194;2023-02-15T08:40:20;45;43;
72793;PMS5003;63436;26.334;50.194;2023-02-15T08:42:45;53;46;
72793;PMS5003;63436;26.334;50.194;2023-02-15T08:45:12;57;48;
72793;PMS5003;63436;26.334;50.194;2023-02-15T08:47:41;75;55;
72793;PMS5003;63436;26.334;50.194;2023-02-15T08:50:02;58;48;
72793;PMS5003;63436;26.334;50.194;2023-02-15T08:52:27;58;52;
72793;PMS5003;63436;26.334;50.194;2023-02-15T08:54:52;49;45;
72793;PMS5003;63436;26.334;50.194;2023-02-15T08:57:17;44;41;
72793;PMS5003;63436;26.334;50.194;2023-02-15T08:59:43;66;53;
72793;PMS5003;63436;26.334;50.194;2023-02-15T09:02:09;49;43;
72793;PMS5003;63436;26.334;50.194;2023-02-15T09:04:34;53;49;
72793;PMS5003;63436;26.334;50.194;2023-02-15T09:07:00;55;47;
72793;PMS5003;63436;26.334;50.194;2023-02-15T09:09:24;47;43;
72793;PMS5003;63436;26.334;50.194;2023-02-15T09:11:50;50;47;
72793;PMS5003;63436;26.334;50.194;2023-02-15T09:14:17;52;47;
72793;PMS5003;63436;26.334;50.194;2023-02-15T09:16:42;61;49;
72793;PMS5003;63436;26.334;50.194;2023-02-15T09:19:07;49;46;
72793;PMS5003;63436;26.334;50.194;2023-02-15T09:21:35;55;50;
72793;PMS5003;63436;26.334;50.194;2023-02-15T09:23:59;49;46;
72793;PMS5003;63436;26.334;50.194;2023-02-15T09:26:24;46;43;
72793;PMS5003;63436;26.334;50.194;2023-02-15T09:28:51;43;40;
72793;PMS5003;63436;26.334;50.194;2023-02-15T09:31:16;49;46;
72793;PMS5003;63436;26.334;50.194;2023-02-15T09:33:40;53;47;
72793;PMS5003;63436;26.334;50.194;2023-02-15T09:38:31;53;43;
72793;PMS5003;63436;26.334;50.194;2023-02-15T09:43:25;46;40;
72793;PMS5003;63436;26.334;50.194;2023-02-15T09:45:52;44;37;
72793;PMS5003;63436;26.334;50.194;2023-02-15T09:48:17;42;39;
72793;PMS5003;63436;26.334;50.194;2023-02-15T09:50:39;50;45;
72793;PMS5003;63436;26.334;50.194;2023-02-15T09:53:09;49;40;
72793;PMS5003;63436;26.334;50.194;2023-02-15T09:55:34;48;40;
72793;PMS5003;63436;26.334;50.194;2023-02-15T09:57:57;56;47;
72793;PMS5003;63436;26.334;50.194;2023-02-15T10:00:23;57;50;
72793;PMS5003;63436;26.334;50.194;2023-02-15T10:02:50;56;48;
72793;PMS5003;63436;26.334;50.194;2023-02-15T10:05:14;46;42;
72793;PMS5003;63436;26.334;50.194;2023-02-15T10:07:42;55;48;
72793;PMS5003;63436;26.334;50.194;2023-02-15T10:10:04;72;61;
72793;PMS5003;63436;26.334;50.194;2023-02-15T10:12:32;76;67;
72793;PMS5003;63436;26.334;50.194;2023-02-15T10:14:57;80;73;
72793;PMS5003;63436;26.334;50.194;2023-02-15T10:17:23;81;73;
72793;PMS5003;63436;26.334;50.194;2023-02-15T10:19:45;84;72;
72793;PMS5003;63436;26.334;50.194;2023-02-15T10:22:13;78;67;
72793;PMS5003;63436;26.334;50.194;2023-02-15T10:24:40;83;74;
72793;PMS5003;63436;26.334;50.194;2023-02-15T10:27:01;71;65;
72793;PMS5003;63436;26.334;50.194;2023-02-15T10:29:27;77;66;
72793;PMS5003;63436;26.334;50.194;2023-02-15T10:31:51;77;65;
72793;PMS5003;63436;26.334;50.194;2023-02-15T10:34:17;72;69;
72793;PMS5003;63436;26.334;50.194;2023-02-15T10:36:48;70;66;
72793;PMS5003;63436;26.334;50.194;2023-02-15T10:39:09;71;62;
72793;PMS5003;63436;26.334;50.194;2023-02-15T10:41:35;77;72;
72793;PMS5003;63436;26.334;50.194;2023-02-15T10:44:02;69;63;
72793;PMS5003;63436;26.334;50.194;2023-02-15T10:46:31;72;60;
72793;PMS5003;63436;26.334;50.194;2023-02-15T10:48:54;74;61;
72793;PMS5003;63436;26.334;50.194;2023-02-15T10:51:16;61;56;
72793;PMS5003;63436;26.334;50.194;2023-02-15T10:53:45;56;50;
72793;PMS5003;63436;26.334;50.194;2023-02-15T10:56:09;62;54;
72793;PMS5003;63436;26.334;50.194;2023-02-15T10:58:36;56;54;
72793;PMS5003;63436;26.334;50.194;2023-02-15T11:00:58;70;63;
72793;PMS5003;63436;26.334;50.194;2023-02-15T11:03:27;58;54;
72793;PMS5003;63436;26.334;50.194;2023-02-15T11:05:50;65;55;
72793;PMS5003;63436;26.334;50.194;2023-02-15T11:08:13;64;52;
72793;PMS5003;63436;26.334;50.194;2023-02-15T11:10:41;53;48;
72793;PMS5003;63436;26.334;50.194;2023-02-15T11:13:07;54;46;
72793;PMS5003;63436;26.334;50.194;2023-02-15T11:15:30;52;46;
72793;PMS5003;63436;26.334;50.194;2023-02-15T11:17:57;57;45;
72793;PMS5003;63436;26.334;50.194;2023-02-15T11:20:22;51;47;
72793;PMS5003;63436;26.334;50.194;2023-02-15T11:22:47;54;43;
72793;PMS5003;63436;26.334;50.194;2023-02-15T11:25:14;53;45;
72793;PMS5003;63436;26.334;50.194;2023-02-15T11:27:37;49;42;
72793;PMS5003;63436;26.334;50.194;2023-02-15T11:30:04;43;43;
72793;PMS5003;63436;26.334;50.194;2023-02-15T11:32:28;42;39;
72793;PMS5003;63436;26.334;50.194;2023-02-15T11:34:54;50;41;
72793;PMS5003;63436;26.334;50.194;2023-02-15T11:37:20;46;40;
72793;PMS5003;63436;26.334;50.194;2023-02-15T11:39:44;43;41;
72793;PMS5003;63436;26.334;50.194;2023-02-15T11:42:11;48;41;
72793;PMS5003;63436;26.334;50.194;2023-02-15T11:44:35;43;38;
72793;PMS5003;63436;26.334;50.194;2023-02-15T11:47:00;45;41;
72793;PMS5003;63436;26.334;50.194;2023-02-15T11:49:27;43;38;
72793;PMS5003;63436;26.334;50.194;2023-02-15T11:51:51;37;35;
72793;PMS5003;63436;26.334;50.194;2023-02-15T11:54:16;47;43;
72793;PMS5003;63436;26.334;50.194;2023-02-15T11:56:42;48;42;
72793;PMS5003;63436;26.334;50.194;2023-02-15T11:59:09;51;40;
72793;PMS5003;63436;26.334;50.194;2023-02-15T12:01:34;45;42;
72793;PMS5003;63436;26.334;50.194;2023-02-15T12:03:59;46;37;
72793;PMS5003;63436;26.334;50.194;2023-02-15T12:06:25;43;37;
72793;PMS5003;63436;26.334;50.194;2023-02-15T12:08:52;51;41;
72793;PMS5003;63436;26.334;50.194;2023-02-15T12:11:17;41;38;
72793;PMS5003;63436;26.334;50.194;2023-02-15T12:16:06;41;36;
72793;PMS5003;63436;26.334;50.194;2023-02-15T12:18:33;42;37;
72793;PMS5003;63436;26.334;50.194;2023-02-15T12:20:57;42;37;
72793;PMS5003;63436;26.334;50.194;2023-02-15T12:23:21;46;41;
72793;PMS5003;63436;26.334;50.194;2023-02-15T12:25:49;56;42;
72793;PMS5003;63436;26.334;50.194;2023-02-15T12:28:22;43;38;
72793;PMS5003;63436;26.334;50.194;2023-02-15T12:30:37;45;36;
72793;PMS5003;63436;26.334;50.194;2023-02-15T12:33:05;53;43;
72793;PMS5003;63436;26.334;50.194;2023-02-15T12:35:29;44;38;
72793;PMS5003;63436;26.334;50.194;2023-02-15T12:37:54;49;44;
72793;PMS5003;63436;26.334;50.194;2023-02-15T12:40:20;46;40;
72793;PMS5003;63436;26.334;50.194;2023-02-15T12:42:45;45;39;
72793;PMS5003;63436;26.334;50.194;2023-02-15T12:47:35;49;44;
72793;PMS5003;63436;26.334;50.194;2023-02-15T12:50:08;43;37;
72793;PMS5003;63436;26.334;50.194;2023-02-15T12:52:26;46;42;
72793;PMS5003;63436;26.334;50.194;2023-02-15T12:54:51;46;39;
72793;PMS5003;63436;26.334;50.194;2023-02-15T12:57:22;51;46;
72793;PMS5003;63436;26.334;50.194;2023-02-15T12:59:47;48;43;
72793;PMS5003;63436;26.334;50.194;2023-02-15T13:02:09;45;43;
72793;PMS5003;63436;26.334;50.194;2023-02-15T13:04:33;56;43;
72793;PMS5003;63436;26.334;50.194;2023-02-15T13:07:00;51;47;
72793;PMS5003;63436;26.334;50.194;2023-02-15T13:09:33;43;38;
72793;PMS5003;63436;26.334;50.194;2023-02-15T13:11:51;47;41;
72793;PMS5003;63436;26.334;50.194;2023-02-15T13:14:16;45;41;
72793;PMS5003;63436;26.334;50.194;2023-02-15T13:16:41;43;38;
72793;PMS5003;63436;26.334;50.194;2023-02-15T13:19:09;49;45;
72793;PMS5003;63436;26.334;50.194;2023-02-15T13:21:33;62;46;
72793;PMS5003;63436;26.334;50.194;2023-02-15T13:23:57;44;40;
72793;PMS5003;63436;26.334;50.194;2023-02-15T13:26:23;42;36;
72793;PMS5003;63436;26.334;50.194;2023-02-15T13:28:48;40;35;
72793;PMS5003;63436;26.334;50.194;2023-02-15T13:31:15;44;37;
72793;PMS5003;63436;26.334;50.194;2023-02-15T13:33:39;43;39;
72793;PMS5003;63436;26.334;50.194;2023-02-15T13:36:05;89;62;
72793;PMS5003;63436;26.334;50.194;2023-02-15T13:40:55;60;47;
72793;PMS5003;63436;26.334;50.194;2023-02-15T13:43:24;57;43;
72793;PMS5003;63436;26.334;50.194;2023-02-15T13:45:50;59;43;
72793;PMS5003;63436;26.334;50.194;2023-02-15T13:48:14;54;44;
72793;PMS5003;63436;26.334;50.194;2023-02-15T13:50:48;61;43;
72793;PMS5003;63436;26.334;50.194;2023-02-15T13:53:08;42;35;
72793;PMS5003;63436;26.334;50.194;2023-02-15T13:55:31;45;37;
72793;PMS5003;63436;26.334;50.194;2023-02-15T13:57:57;47;39;
72793;PMS5003;63436;26.334;50.194;2023-02-15T14:00:20;38;36;
72793;PMS5003;63436;26.334;50.194;2023-02-15T14:02:55;43;36;
72793;PMS5003;63436;26.334;50.194;2023-02-15T14:07:41;34;32;
72793;PMS5003;63436;26.334;50.194;2023-02-15T14:10:03;42;31;
72793;PMS5003;63436;26.334;50.194;2023-02-15T14:12:31;45;38;
72793;PMS5003;63436;26.334;50.194;2023-02-15T14:17:19;37;35;
72793;PMS5003;63436;26.334;50.194;2023-02-15T14:19:44;41;33;
72793;PMS5003;63436;26.334;50.194;2023-02-15T14:22:10;37;28;
72793;PMS5003;63436;26.334;50.194;2023-02-15T14:24:35;34;28;
72793;PMS5003;63436;26.334;50.194;2023-02-15T14:27:02;53;37;
72793;PMS5003;63436;26.334;50.194;2023-02-15T14:29:27;31;25;
72793;PMS5003;63436;26.334;50.194;2023-02-15T14:31:50;44;37;
72793;PMS5003;63436;26.334;50.194;2023-02-15T14:34:18;38;31;
72793;PMS5003;63436;26.334;50.194;2023-02-15T14:36:40;46;33;
72793;PMS5003;63436;26.334;50.194;2023-02-15T14:39:08;32;30;
72793;PMS5003;63436;26.334;50.194;2023-02-15T14:41:35;67;45;
72793;PMS5003;63436;26.334;50.194;2023-02-15T14:43:58;57;38;
72793;PMS5003;63436;26.334;50.194;2023-02-15T14:46:24;40;31;
72793;PMS5003;63436;26.334;50.194;2023-02-15T14:48:48;37;32;
72793;PMS5003;63436;26.334;50.194;2023-02-15T14:53:38;30;29;
72793;PMS5003;63436;26.334;50.194;2023-02-15T14:56:06;59;45;
72793;PMS5003;63436;26.334;50.194;2023-02-15T14:58:29;47;37;
72793;PMS5003;63436;26.334;50.194;2023-02-15T15:00:54;77;50;
72793;PMS5003;63436;26.334;50.194;2023-02-15T15:03:21;63;45;
72793;PMS5003;63436;26.334;50.194;2023-02-15T15:05:48;59;45;
72793;PMS5003;63436;26.334;50.194;2023-02-15T15:08:19;83;59;
72793;PMS5003;63436;26.334;50.194;2023-02-15T15:10:39;65;44;
72793;PMS5003;63436;26.334;50.194;2023-02-15T15:15:33;49;37;
72793;PMS5003;63436;26.334;50.194;2023-02-15T15:17:54;48;39;
72793;PMS5003;63436;26.334;50.194;2023-02-15T15:22:43;54;42;
72793;PMS5003;63436;26.334;50.194;2023-02-15T15:25:09;62;48;
72793;PMS5003;63436;26.334;50.194;2023-02-15T15:27:39;94;65;
72793;PMS5003;63436;26.334;50.194;2023-02-15T15:29:59;82;64;
72793;PMS5003;63436;26.334;50.194;2023-02-15T15:32:25;78;62;
72793;PMS5003;63436;26.334;50.194;2023-02-15T15:34:53;89;70;
72793;PMS5003;63436;26.334;50.194;2023-02-15T15:42:09;75;67;
72793;PMS5003;63436;26.334;50.194;2023-02-15T15:47:02;72;61;
72793;PMS5003;63436;26.334;50.194;2023-02-15T15:49:23;69;66;
72793;PMS5003;63436;26.334;50.194;2023-02-15T15:51:48;66;65;
72793;PMS5003;63436;26.334;50.194;2023-02-15T15:54:15;73;68;
72793;PMS5003;63436;26.334;50.194;2023-02-15T15:56:39;70;63;
72793;PMS5003;63436;26.334;50.194;2023-02-15T15:59:04;57;55;
72793;PMS5003;63436;26.334;50.194;2023-02-15T16:01:30;64;58;
72793;PMS5003;63436;26.334;50.194;2023-02-15T16:03:55;71;67;
72793;PMS5003;63436;26.334;50.194;2023-02-15T16:06:28;69;62;
72793;PMS5003;63436;26.334;50.194;2023-02-15T16:08:46;74;66;
72793;PMS5003;63436;26.334;50.194;2023-02-15T16:11:13;68;64;
72793;PMS5003;63436;26.334;50.194;2023-02-15T16:13:37;76;65;
72793;PMS5003;63436;26.334;50.194;2023-02-15T16:16:02;74;63;
72793;PMS5003;63436;26.334;50.194;2023-02-15T16:18:28;63;59;
72793;PMS5003;63436;26.334;50.194;2023-02-15T16:20:54;68;62;
72793;PMS5003;63436;26.334;50.194;2023-02-15T16:23:26;61;60;
72793;PMS5003;63436;26.334;50.194;2023-02-15T16:25:47;71;67;
72793;PMS5003;63436;26.334;50.194;2023-02-15T16:28:11;67;60;